Time;durP1;ratioP1;P1;durP2;ratioP2;P2;SDS_P1;SDS_P2;PMS_P1;PMS_P2;Temp;Humidity;BMP_temperature;BMP_pressure;BME280_temperature;BME280_humidity;BME280_pressure;Samples;Min_cycle;Max_cycle;Signal;HPM_P1;HPM_P2
2021/12/01 00:00:13;;;;;;;;;;;20.80;36.30;;;;;;702436;28;490;-80
2021/12/01 00:00:33;;;;;;;;;;;20.80;36.40;;;;;;702390;28;1302;-87
2021/12/01 00:00:54;;;;;;;;;;;20.80;36.40;;;;;;702396;28;838;-85
2021/12/01 00:01:14;;;;;;;;;;;20.70;36.30;;;;;;702461;28;782;-80
2021/12/01 00:01:35;;;;;;;;;;;20.80;36.40;;;;;;702619;28;810;-86
2021/12/01 00:01:55;;;;;;;;;;;20.80;36.40;;;;;;702340;28;939;-88
2021/12/01 00:02:16;;;;;;;;;;;20.80;36.40;;;;;;702401;28;964;-87
2021/12/01 00:02:37;;;;;;;;;;;20.80;36.30;;;;;;702298;28;1270;-87
2021/12/01 00:02:57;;;;;;;;;;;20.80;36.40;;;;;;699361;28;1229;-87
2021/12/01 00:03:18;;;;;;;;;;;20.80;36.40;;;;;;699430;28;882;-87
2021/12/01 00:03:40;;;;;;;;;;;20.80;36.30;;;;;;699683;28;814;-87
2021/12/01 00:04:01;;;;;;;;;;;20.80;36.40;;;;;;699567;28;826;-87
2021/12/01 00:04:21;;;;;;;;;;;20.70;36.30;;;;;;700006;28;832;-88
2021/12/01 00:04:42;;;;;;;;;;;20.80;36.40;;;;;;702107;28;1148;-87
2021/12/01 00:05:03;;;;;;;;;;;20.80;36.50;;;;;;702495;28;798;-84
2021/12/01 00:05:25;;;;;;;;;;;20.80;36.50;;;;;;702437;28;1131;-86
2021/12/01 00:05:46;;;;;;;;;;;20.80;36.50;;;;;;702463;28;865;-85
2021/12/01 00:06:07;;;;;;;;;;;20.70;36.50;;;;;;702508;28;858;-86
2021/12/01 00:06:28;;;;;;;;;;;20.80;36.40;;;;;;702227;28;929;-83
2021/12/01 00:06:48;;;;;;;;;;;20.80;36.50;;;;;;702528;28;790;-87
2021/12/01 00:07:09;;;;;;;;;;;20.80;36.50;;;;;;702595;28;885;-86
2021/12/01 00:07:30;;;;;;;;;;;20.80;36.50;;;;;;702538;28;913;-86
2021/12/01 00:07:51;;;;;;;;;;;20.70;36.40;;;;;;702440;28;845;-86
2021/12/01 00:08:12;;;;;;;;;;;20.70;36.40;;;;;;702438;28;893;-86
2021/12/01 00:08:33;;;;;;;;;;;20.70;36.40;;;;;;702702;28;809;-84
2021/12/01 00:08:54;;;;;;;;;;;20.80;36.40;;;;;;702252;28;1914;-86
2021/12/01 00:09:15;;;;;;;;;;;20.70;36.40;;;;;;702518;28;956;-83
2021/12/01 00:09:35;;;;;;;;;;;20.70;36.40;;;;;;702896;28;810;-86
2021/12/01 00:09:56;;;;;;;;;;;20.70;36.50;;;;;;702333;28;818;-86
2021/12/01 00:10:17;;;;;;;;;;;20.70;36.40;;;;;;702042;28;1203;-85
2021/12/01 00:10:38;;;;;;;;;;;20.80;36.40;;;;;;702425;28;865;-86
2021/12/01 00:10:58;;;;;;;;;;;20.70;36.40;;;;;;702151;28;861;-87
2021/12/01 00:11:19;;;;;;;;;;;20.70;36.40;;;;;;702229;28;1210;-82
2021/12/01 00:11:39;;;;;;;;;;;20.70;36.40;;;;;;702303;28;881;-83
2021/12/01 00:12:00;;;;;;;;;;;20.70;36.50;;;;;;702403;28;790;-86
2021/12/01 00:12:20;;;;;;;;;;;20.70;36.40;;;;;;702447;28;841;-85
2021/12/01 00:12:41;;;;;;;;;;;20.70;37.50;;;;;;702484;28;810;-82
2021/12/01 00:13:03;;;;;;;;;;;20.70;36.50;;;;;;702425;28;861;-87
2021/12/01 00:13:25;;;;;;;;;;;20.70;36.40;;;;;;704868;28;1395;-82
2021/12/01 00:13:45;;;;;;;;;;;20.70;36.40;;;;;;705087;28;873;-86
2021/12/01 00:14:06;;;;;;;;;;;20.70;36.40;;;;;;705429;28;1351;-86
2021/12/01 00:14:26;;;;;;;;;;;20.70;36.40;;;;;;705259;28;853;-87
2021/12/01 00:14:47;;;;;;;;;;;20.70;36.40;;;;;;705129;28;920;-83
2021/12/01 00:15:08;;;;;;;;;;;20.70;36.40;;;;;;705210;28;794;-87
2021/12/01 00:15:28;;;;;;;;;;;20.70;36.40;;;;;;705211;28;981;-84
2021/12/01 00:15:50;;;;;;;;;;;20.70;37.60;;;;;;705261;28;845;-88
2021/12/01 00:16:10;;;;;;;;;;;20.70;36.50;;;;;;705250;28;971;-88
2021/12/01 00:16:31;;;;;;;;;;;20.70;36.50;;;;;;705380;28;1055;-87
2021/12/01 00:16:52;;;;;;;;;;;20.70;36.50;;;;;;705254;28;904;-86
2021/12/01 00:17:12;;;;;;;;;;;20.70;36.50;;;;;;705161;28;929;-89
2021/12/01 00:17:33;;;;;;;;;;;20.70;36.50;;;;;;705441;28;822;-88
2021/12/01 00:17:54;;;;;;;;;;;20.70;36.50;;;;;;705364;28;809;-86
2021/12/01 00:18:14;;;;;;;;;;;20.70;36.40;;;;;;705246;28;802;-80
2021/12/01 00:18:35;;;;;;;;;;;20.70;36.50;;;;;;705440;28;805;-84
2021/12/01 00:18:56;;;;;;;;;;;20.70;36.40;;;;;;705479;28;770;-86
2021/12/01 00:19:16;;;;;;;;;;;20.70;36.50;;;;;;704602;28;1388;-88
2021/12/01 00:19:37;;;;;;;;;;;20.70;36.40;;;;;;705225;28;908;-87
2021/12/01 00:19:59;;;;;;;;;;;20.70;36.50;;;;;;705466;28;848;-88
2021/12/01 00:20:20;;;;;;;;;;;20.70;36.50;;;;;;705399;28;837;-87
2021/12/01 00:20:41;;;;;;;;;;;20.70;36.50;;;;;;705464;28;1242;-88
2021/12/01 00:21:01;;;;;;;;;;;20.70;37.60;;;;;;705406;28;976;-87
2021/12/01 00:21:22;;;;;;;;;;;20.70;36.40;;;;;;705309;28;798;-89
2021/12/01 00:21:42;;;;;;;;;;;20.70;36.50;;;;;;705293;28;860;-88
2021/12/01 00:22:03;;;;;;;;;;;20.70;36.50;;;;;;705734;28;909;-88
2021/12/01 00:22:24;;;;;;;;;;;20.70;36.50;;;;;;705843;28;779;-88
2021/12/01 00:22:45;;;;;;;;;;;20.70;36.60;;;;;;706299;28;833;-87
2021/12/01 00:23:05;;;;;;;;;;;20.70;36.50;;;;;;706301;28;928;-86
2021/12/01 00:23:27;;;;;;;;;;;20.70;36.50;;;;;;706308;28;885;-87
2021/12/01 00:23:47;;;;;;;;;;;20.70;36.50;;;;;;705961;28;999;-87
2021/12/01 00:24:08;;;;;;;;;;;20.70;36.60;;;;;;705922;28;893;-87
2021/12/01 00:24:28;;;;;;;;;;;20.70;36.50;;;;;;706038;28;791;-88
2021/12/01 00:24:49;;;;;;;;;;;20.70;36.50;;;;;;705952;28;1059;-87
2021/12/01 00:25:11;;;;;;;;;;;20.70;36.50;;;;;;705763;28;877;-85
2021/12/01 00:25:35;;;;;;;;;;;20.70;36.50;;;;;;705983;28;865;-88
2021/12/01 00:25:56;;;;;;;;;;;20.70;36.50;;;;;;705787;28;864;-88
2021/12/01 00:26:16;;;;;;;;;;;20.70;36.60;;;;;;705602;28;813;-88
2021/12/01 00:26:37;;;;;;;;;;;20.70;36.60;;;;;;705604;28;889;-87
2021/12/01 00:26:57;;;;;;;;;;;20.70;36.60;;;;;;705685;28;818;-87
2021/12/01 00:27:18;;;;;;;;;;;20.70;36.60;;;;;;705496;28;889;-88
2021/12/01 00:27:39;;;;;;;;;;;20.70;36.60;;;;;;705662;28;790;-89
2021/12/01 00:27:59;;;;;;;;;;;20.70;36.70;;;;;;705650;28;881;-85
2021/12/01 00:28:20;;;;;;;;;;;20.70;36.60;;;;;;705542;27;825;-87
2021/12/01 00:28:40;;;;;;;;;;;20.60;36.60;;;;;;705384;28;786;-86
2021/12/01 00:29:01;;;;;;;;;;;20.60;36.60;;;;;;705432;28;1902;-87
2021/12/01 00:29:21;;;;;;;;;;;20.60;36.60;;;;;;705537;28;813;-89
2021/12/01 00:29:42;;;;;;;;;;;20.70;36.60;;;;;;705376;28;913;-87
2021/12/01 00:30:03;;;;;;;;;;;20.60;36.60;;;;;;705323;28;880;-90
2021/12/01 00:30:24;;;;;;;;;;;20.70;36.70;;;;;;705218;28;881;-88
2021/12/01 00:30:45;;;;;;;;;;;20.60;36.60;;;;;;705441;28;818;-84
2021/12/01 00:31:06;;;;;;;;;;;20.60;36.60;;;;;;705668;28;805;-87
2021/12/01 00:31:27;;;;;;;;;;;20.60;36.60;;;;;;705520;28;1012;-90
2021/12/01 00:31:48;;;;;;;;;;;20.60;36.60;;;;;;705262;28;826;-85
2021/12/01 00:32:08;;;;;;;;;;;20.60;36.60;;;;;;705376;28;1130;-88
2021/12/01 00:32:29;;;;;;;;;;;20.60;36.60;;;;;;705436;28;861;-88
2021/12/01 00:32:52;;;;;;;;;;;20.60;36.60;;;;;;705338;28;888;-89
2021/12/01 00:33:13;;;;;;;;;;;20.70;36.70;;;;;;705306;28;885;-89
2021/12/01 00:33:34;;;;;;;;;;;20.60;36.60;;;;;;705411;28;806;-87
2021/12/01 00:33:55;;;;;;;;;;;20.60;36.60;;;;;;705349;28;817;-80
2021/12/01 00:34:16;;;;;;;;;;;20.60;36.70;;;;;;705455;28;901;-88
2021/12/01 00:34:36;;;;;;;;;;;20.60;36.60;;;;;;705673;28;842;-89
2021/12/01 00:34:59;;;;;;;;;;;20.60;36.70;;;;;;705246;28;894;-89
2021/12/01 00:35:20;;;;;;;;;;;20.60;37.80;;;;;;702322;28;1434;-88
2021/12/01 00:35:40;;;;;;;;;;;20.60;36.70;;;;;;702368;28;814;-84
2021/12/01 00:36:01;;;;;;;;;;;20.60;36.70;;;;;;702544;28;953;-89
2021/12/01 00:36:22;;;;;;;;;;;20.60;36.70;;;;;;702723;28;822;-86
2021/12/01 00:36:42;;;;;;;;;;;20.60;36.70;;;;;;700153;28;919;-88
2021/12/01 00:37:03;;;;;;;;;;;20.60;36.70;;;;;;703099;28;846;-88
2021/12/01 00:37:24;;;;;;;;;;;20.60;37.80;;;;;;705656;28;897;-87
2021/12/01 00:37:45;;;;;;;;;;;20.50;36.70;;;;;;705441;28;849;-83
2021/12/01 00:38:06;;;;;;;;;;;20.60;36.80;;;;;;705629;28;885;-85
2021/12/01 00:38:28;;;;;;;;;;;20.60;36.80;;;;;;705637;28;869;-87
2021/12/01 00:38:49;;;;;;;;;;;20.60;36.80;;;;;;705598;28;917;-89
2021/12/01 00:39:09;;;;;;;;;;;20.60;36.70;;;;;;706410;28;924;-83
2021/12/01 00:39:30;;;;;;;;;;;20.60;36.70;;;;;;706323;28;909;-87
2021/12/01 00:39:50;;;;;;;;;;;20.60;36.80;;;;;;706079;28;793;-87
2021/12/01 00:40:11;;;;;;;;;;;20.60;36.80;;;;;;706033;28;976;-86
2021/12/01 00:40:32;;;;;;;;;;;20.60;36.80;;;;;;706352;28;813;-87
2021/12/01 00:40:53;;;;;;;;;;;20.60;36.80;;;;;;706029;28;822;-87
2021/12/01 00:41:14;;;;;;;;;;;20.60;36.80;;;;;;706277;28;822;-86
2021/12/01 00:41:35;;;;;;;;;;;20.60;36.80;;;;;;705799;28;846;-85
2021/12/01 00:41:56;;;;;;;;;;;20.60;36.80;;;;;;706131;28;798;-85
2021/12/01 00:42:20;;;;;;;;;;;20.60;36.80;;;;;;705661;28;881;-86
2021/12/01 00:42:41;;;;;;;;;;;20.60;36.80;;;;;;705436;28;901;-87
2021/12/01 00:43:01;;;;;;;;;;;20.60;36.80;;;;;;705868;28;844;-86
2021/12/01 00:43:25;;;;;;;;;;;20.60;36.80;;;;;;705658;28;772;-87
2021/12/01 00:43:45;;;;;;;;;;;20.60;36.80;;;;;;705901;28;869;-87
2021/12/01 00:44:07;;;;;;;;;;;20.60;36.80;;;;;;705912;28;912;-87
2021/12/01 00:44:29;;;;;;;;;;;20.60;36.80;;;;;;705332;28;856;-84
2021/12/01 00:44:59;;;;;;;;;;;20.60;36.80;;;;;;705736;28;473;-91
2021/12/01 00:45:22;;;;;;;;;;;20.60;36.80;;;;;;706142;28;927;-89
2021/12/01 00:45:55;;;;;;;;;;;20.60;36.90;;;;;;705643;28;1182;-87
2021/12/01 00:47:31;;;;;;;;;;;20.60;36.90;;;;;;697723;28;679;-88
2021/12/01 00:47:53;;;;;;;;;;;20.60;36.80;;;;;;699713;28;1147;-88
2021/12/01 00:48:13;;;;;;;;;;;20.60;36.90;;;;;;699999;28;834;-84
2021/12/01 00:48:34;;;;;;;;;;;20.60;36.90;;;;;;699667;28;1000;-85
2021/12/01 00:48:54;;;;;;;;;;;20.60;36.90;;;;;;699726;28;1972;-81
2021/12/01 00:49:15;;;;;;;;;;;20.60;36.90;;;;;;700008;28;929;-84
2021/12/01 00:49:35;;;;;;;;;;;20.60;36.90;;;;;;700072;28;943;-86
2021/12/01 00:49:56;;;;;;;;;;;20.60;36.90;;;;;;700138;28;870;-87
2021/12/01 00:50:23;;;;;;;;;;;20.60;36.90;;;;;;696087;28;1330;-87
2021/12/01 00:50:43;;;;;;;;;;;20.60;36.90;;;;;;693878;28;874;-86
2021/12/01 00:51:04;;;;;;;;;;;20.60;36.90;;;;;;694670;28;775;-86
2021/12/01 00:51:24;;;;;;;;;;;20.60;36.90;;;;;;694312;28;890;-82
2021/12/01 00:51:45;;;;;;;;;;;20.60;36.90;;;;;;694351;28;897;-85
2021/12/01 00:52:06;;;;;;;;;;;20.60;36.90;;;;;;695607;28;858;-87
2021/12/01 00:52:27;;;;;;;;;;;20.60;36.90;;;;;;697051;28;866;-85
2021/12/01 00:52:47;;;;;;;;;;;20.60;36.90;;;;;;699458;28;1135;-84
2021/12/01 00:53:08;;;;;;;;;;;20.60;36.90;;;;;;699703;28;794;-86
2021/12/01 00:53:28;;;;;;;;;;;20.60;36.90;;;;;;697021;28;869;-86
2021/12/01 00:53:49;;;;;;;;;;;20.60;36.90;;;;;;697223;28;900;-86
2021/12/01 00:54:10;;;;;;;;;;;20.60;36.90;;;;;;697154;28;826;-84
2021/12/01 00:54:31;;;;;;;;;;;20.60;36.90;;;;;;697360;28;794;-87
2021/12/01 00:54:51;;;;;;;;;;;20.60;36.90;;;;;;697216;28;790;-85
2021/12/01 00:55:12;;;;;;;;;;;20.60;36.90;;;;;;697673;28;932;-86
2021/12/01 00:55:33;;;;;;;;;;;20.60;36.90;;;;;;700140;28;829;-88
2021/12/01 00:55:54;;;;;;;;;;;20.60;38.00;;;;;;700119;28;822;-85
2021/12/01 00:56:14;;;;;;;;;;;20.60;36.90;;;;;;699733;28;933;-86
2021/12/01 00:56:35;;;;;;;;;;;20.60;36.90;;;;;;699410;28;1405;-83
2021/12/01 00:56:55;;;;;;;;;;;20.60;36.90;;;;;;699194;28;959;-85
2021/12/01 00:57:16;;;;;;;;;;;20.60;36.80;;;;;;699373;28;897;-83
2021/12/01 00:57:36;;;;;;;;;;;20.60;36.80;;;;;;696462;28;1333;-85
2021/12/01 00:57:57;;;;;;;;;;;20.60;36.90;;;;;;696483;28;920;-85
2021/12/01 00:58:18;;;;;;;;;;;20.60;36.90;;;;;;696439;28;941;-86
2021/12/01 00:58:38;;;;;;;;;;;20.60;36.90;;;;;;696582;28;877;-85
2021/12/01 00:59:00;;;;;;;;;;;20.60;36.90;;;;;;696462;28;871;-86
2021/12/01 00:59:20;;;;;;;;;;;20.60;36.90;;;;;;695868;28;1115;-86
2021/12/01 00:59:41;;;;;;;;;;;20.60;36.90;;;;;;696389;28;1848;-87
2021/12/01 01:00:04;;;;;;;;;;;20.60;36.80;;;;;;696408;28;889;-87
2021/12/01 01:00:26;;;;;;;;;;;20.60;36.80;;;;;;696384;28;770;-83
2021/12/01 01:00:49;;;;;;;;;;;20.60;36.80;;;;;;696297;28;846;-86
2021/12/01 01:01:10;;;;;;;;;;;20.60;36.80;;;;;;696221;28;1596;-84
2021/12/01 01:01:30;;;;;;;;;;;20.60;36.80;;;;;;697755;28;956;-89
2021/12/01 01:01:51;;;;;;;;;;;20.60;36.80;;;;;;701633;28;1451;-87
2021/12/01 01:02:11;;;;;;;;;;;20.60;36.80;;;;;;699483;28;1248;-89
2021/12/01 01:02:32;;;;;;;;;;;20.60;36.80;;;;;;699434;28;889;-89
2021/12/01 01:02:53;;;;;;;;;;;20.60;36.80;;;;;;699288;28;984;-88
2021/12/01 01:03:14;;;;;;;;;;;20.50;36.70;;;;;;699189;28;829;-87
2021/12/01 01:03:35;;;;;;;;;;;20.60;36.80;;;;;;695373;28;1187;-86
2021/12/01 01:03:56;;;;;;;;;;;20.60;36.60;;;;;;694717;28;1352;-90
2021/12/01 01:04:16;;;;;;;;;;;20.60;36.70;;;;;;699221;28;1277;-89
2021/12/01 01:04:37;;;;;;;;;;;20.60;36.60;;;;;;699739;28;518;-93
2021/12/01 01:04:58;;;;;;;;;;;20.60;36.60;;;;;;699623;28;1346;-91
2021/12/01 01:05:18;;;;;;;;;;;20.60;36.70;;;;;;700702;28;912;-93
2021/12/01 01:05:39;;;;;;;;;;;20.60;36.70;;;;;;702786;28;1073;-85
2021/12/01 01:05:59;;;;;;;;;;;20.60;36.70;;;;;;702187;28;817;-89
2021/12/01 01:06:20;;;;;;;;;;;20.50;36.60;;;;;;699853;28;877;-91
2021/12/01 01:06:42;;;;;;;;;;;20.60;36.70;;;;;;699547;28;985;-91
2021/12/01 01:07:03;;;;;;;;;;;20.60;36.60;;;;;;699624;28;778;-91
2021/12/01 01:07:23;;;;;;;;;;;20.60;36.70;;;;;;699666;28;862;-91
2021/12/01 01:07:44;;;;;;;;;;;20.60;36.60;;;;;;701119;28;815;-94
2021/12/01 01:08:16;;;;;;;;;;;20.60;36.80;;;;;;699584;28;910;-89
2021/12/01 01:08:36;;;;;;;;;;;20.60;36.60;;;;;;699616;28;806;-90
2021/12/01 01:08:57;;;;;;;;;;;20.60;36.60;;;;;;699236;28;1914;-89
2021/12/01 01:09:17;;;;;;;;;;;20.60;36.60;;;;;;696513;28;1331;-89
2021/12/01 01:09:40;;;;;;;;;;;20.60;37.80;;;;;;696477;28;853;-85
2021/12/01 01:10:06;;;;;;;;;;;20.60;36.70;;;;;;693572;28;1520;-85
2021/12/01 01:16:34;;;;;;;;;;;20.60;36.80;;;;;;699361;28;608;-84
2021/12/01 01:16:55;;;;;;;;;;;20.60;36.80;;;;;;699146;28;857;-82
2021/12/01 01:17:36;;;;;;;;;;;20.60;36.80;;;;;;699195;28;881;-82
2021/12/01 01:18:05;;;;;;;;;;;20.60;36.90;;;;;;699145;28;885;-84
2021/12/01 01:18:28;;;;;;;;;;;20.60;36.90;;;;;;699137;28;853;-88
2021/12/01 01:18:51;;;;;;;;;;;20.60;36.90;;;;;;699303;28;830;-81
2021/12/01 01:19:12;;;;;;;;;;;20.60;37.00;;;;;;695382;28;1429;-81
2021/12/01 01:19:34;;;;;;;;;;;20.60;36.90;;;;;;696508;28;862;-85
2021/12/01 01:19:54;;;;;;;;;;;20.60;36.90;;;;;;696466;28;866;-82
2021/12/01 01:20:16;;;;;;;;;;;20.60;37.00;;;;;;696242;28;1068;-81
2021/12/01 01:20:36;;;;;;;;;;;20.60;37.10;;;;;;696457;28;850;-86
2021/12/01 01:20:57;;;;;;;;;;;20.60;37.10;;;;;;697047;28;1238;-83
2021/12/01 01:21:18;;;;;;;;;;;20.60;37.10;;;;;;699182;28;802;-81
2021/12/01 01:21:41;;;;;;;;;;;20.60;37.10;;;;;;699248;28;731;-84
2021/12/01 01:22:03;;;;;;;;;;;20.60;37.20;;;;;;699211;28;889;-84
2021/12/01 01:22:23;;;;;;;;;;;20.60;37.10;;;;;;698965;28;1136;-82
2021/12/01 01:22:44;;;;;;;;;;;20.60;37.20;;;;;;698316;28;857;-82
2021/12/01 01:23:05;;;;;;;;;;;20.60;37.30;;;;;;696305;28;977;-86
2021/12/01 01:23:26;;;;;;;;;;;20.60;37.20;;;;;;696456;28;838;-84
2021/12/01 01:23:47;;;;;;;;;;;20.60;37.30;;;;;;696321;28;1503;-88
2021/12/01 01:24:08;;;;;;;;;;;20.60;37.20;;;;;;694092;28;1259;-82
2021/12/01 01:24:28;;;;;;;;;;;20.60;37.30;;;;;;696259;28;886;-81
2021/12/01 01:24:49;;;;;;;;;;;20.50;37.20;;;;;;696417;28;483;-86
2021/12/01 01:25:09;;;;;;;;;;;20.50;37.20;;;;;;697953;28;1243;-86
2021/12/01 01:25:31;;;;;;;;;;;20.60;37.30;;;;;;699374;28;1232;-88
2021/12/01 01:25:51;;;;;;;;;;;20.50;37.30;;;;;;699735;28;878;-85
2021/12/01 01:26:14;;;;;;;;;;;20.60;37.30;;;;;;699129;28;1092;-87
2021/12/01 01:26:35;;;;;;;;;;;20.60;37.30;;;;;;699315;28;960;-86
2021/12/01 01:26:56;;;;;;;;;;;20.50;37.20;;;;;;696379;28;1373;-86
2021/12/01 01:27:16;;;;;;;;;;;20.50;37.30;;;;;;694455;28;1317;-86
2021/12/01 01:27:37;;;;;;;;;;;20.60;37.30;;;;;;696599;28;782;-86
2021/12/01 01:27:58;;;;;;;;;;;20.60;37.30;;;;;;697319;28;874;-86
2021/12/01 01:28:18;;;;;;;;;;;20.60;37.40;;;;;;699225;28;771;-87
2021/12/01 01:28:39;;;;;;;;;;;20.50;37.30;;;;;;699521;28;850;-85
2021/12/01 01:29:00;;;;;;;;;;;20.60;38.40;;;;;;699613;28;1951;-89
2021/12/01 01:29:21;;;;;;;;;;;20.60;37.30;;;;;;699289;28;1206;-86
2021/12/01 01:29:42;;;;;;;;;;;20.50;37.30;;;;;;696470;28;1189;-83
2021/12/01 01:30:03;;;;;;;;;;;20.60;37.40;;;;;;696521;28;810;-86
2021/12/01 01:30:24;;;;;;;;;;;20.60;37.40;;;;;;693522;28;1278;-85
2021/12/01 01:30:45;;;;;;;;;;;20.60;37.40;;;;;;691390;28;957;-87
2021/12/01 01:31:05;;;;;;;;;;;20.50;37.30;;;;;;694413;28;902;-86
2021/12/01 01:31:26;;;;;;;;;;;20.50;37.40;;;;;;694034;28;1768;-84
2021/12/01 01:31:49;;;;;;;;;;;20.50;37.50;;;;;;696976;28;1258;-82
2021/12/01 01:32:11;;;;;;;;;;;20.60;37.50;;;;;;697031;28;1287;-86
2021/12/01 01:32:32;;;;;;;;;;;20.50;37.30;;;;;;697133;28;858;-86
2021/12/01 01:32:53;;;;;;;;;;;20.50;37.40;;;;;;696834;28;1203;-82
2021/12/01 01:33:13;;;;;;;;;;;20.60;37.40;;;;;;698010;28;834;-86
2021/12/01 01:33:34;;;;;;;;;;;20.60;37.40;;;;;;700783;28;901;-80
2021/12/01 01:33:57;;;;;;;;;;;20.50;37.40;;;;;;703163;28;786;-82
2021/12/01 01:34:18;;;;;;;;;;;20.50;37.50;;;;;;705322;28;806;-80
2021/12/01 01:34:38;;;;;;;;;;;20.60;37.60;;;;;;704875;28;794;-81
2021/12/01 01:34:59;;;;;;;;;;;20.50;37.60;;;;;;702531;28;1416;-82
2021/12/01 01:35:19;;;;;;;;;;;20.60;37.70;;;;;;702823;28;873;-83
2021/12/01 01:35:40;;;;;;;;;;;20.60;37.60;;;;;;702542;28;813;-78
2021/12/01 01:36:01;;;;;;;;;;;20.50;37.50;;;;;;702700;28;844;-79
2021/12/01 01:36:21;;;;;;;;;;;20.50;37.50;;;;;;702654;28;828;-80
2021/12/01 01:36:42;;;;;;;;;;;20.50;37.50;;;;;;702329;28;945;-81
2021/12/01 01:37:02;;;;;;;;;;;20.50;37.50;;;;;;702769;28;884;-79
2021/12/01 01:37:23;;;;;;;;;;;20.50;37.60;;;;;;702683;28;919;-80
2021/12/01 01:37:43;;;;;;;;;;;20.50;37.60;;;;;;702697;28;854;-80
2021/12/01 01:38:04;;;;;;;;;;;20.50;37.60;;;;;;702855;28;790;-81
2021/12/01 01:38:28;;;;;;;;;;;20.50;37.60;;;;;;702769;28;793;-81
2021/12/01 01:38:49;;;;;;;;;;;20.50;37.60;;;;;;702732;28;881;-78
2021/12/01 01:39:10;;;;;;;;;;;20.50;37.60;;;;;;701414;28;1382;-80
2021/12/01 01:39:31;;;;;;;;;;;20.50;37.70;;;;;;702611;28;877;-81
2021/12/01 01:39:51;;;;;;;;;;;20.50;37.60;;;;;;699653;28;1399;-79
2021/12/01 01:40:15;;;;;;;;;;;20.50;37.60;;;;;;699688;28;899;-83
2021/12/01 01:40:37;;;;;;;;;;;20.50;37.60;;;;;;699799;28;802;-84
2021/12/01 01:41:01;;;;;;;;;;;20.50;37.60;;;;;;700442;28;855;-85
2021/12/01 01:41:22;;;;;;;;;;;20.50;37.60;;;;;;702665;28;810;-84
2021/12/01 01:41:43;;;;;;;;;;;20.50;37.60;;;;;;702610;28;1152;-84
2021/12/01 01:42:04;;;;;;;;;;;20.50;37.60;;;;;;702737;28;1867;-85
2021/12/01 01:42:24;;;;;;;;;;;20.50;37.60;;;;;;702689;28;849;-85
2021/12/01 01:42:45;;;;;;;;;;;20.50;37.60;;;;;;702695;28;874;-79
2021/12/01 01:43:06;;;;;;;;;;;20.50;37.50;;;;;;702874;28;786;-83
2021/12/01 01:43:27;;;;;;;;;;;20.50;37.60;;;;;;702651;28;770;-82
2021/12/01 01:43:48;;;;;;;;;;;20.50;37.60;;;;;;702766;28;490;-81
2021/12/01 01:44:09;;;;;;;;;;;20.50;37.60;;;;;;702737;28;865;-80
2021/12/01 01:44:31;;;;;;;;;;;20.50;37.70;;;;;;702784;28;925;-82
2021/12/01 01:44:51;;;;;;;;;;;20.50;37.60;;;;;;702650;28;829;-82
2021/12/01 01:45:12;;;;;;;;;;;20.50;37.70;;;;;;702620;28;830;-81
2021/12/01 01:45:33;;;;;;;;;;;20.50;37.70;;;;;;702851;28;825;-82
2021/12/01 01:45:54;;;;;;;;;;;20.50;37.70;;;;;;702705;28;905;-83
2021/12/01 01:46:15;;;;;;;;;;;20.50;37.70;;;;;;702418;28;814;-81
2021/12/01 01:46:38;;;;;;;;;;;20.50;37.80;;;;;;702566;28;853;-81
2021/12/01 01:46:59;;;;;;;;;;;20.50;37.70;;;;;;702525;28;802;-78
2021/12/01 01:47:20;;;;;;;;;;;20.50;37.70;;;;;;702537;28;821;-82
2021/12/01 01:47:48;;;;;;;;;;;20.50;37.70;;;;;;702401;28;806;-80
2021/12/01 01:48:10;;;;;;;;;;;20.50;37.70;;;;;;702731;28;1255;-79
2021/12/01 01:48:32;;;;;;;;;;;20.50;37.70;;;;;;702110;28;1371;-78
2021/12/01 01:48:54;;;;;;;;;;;20.50;37.80;;;;;;702477;28;810;-82
2021/12/01 01:49:19;;;;;;;;;;;20.50;37.70;;;;;;702561;28;871;-84
2021/12/01 01:50:17;;;;;;;;;;;20.50;37.80;;;;;;702613;28;872;-84
2021/12/01 01:50:39;;;;;;;;;;;20.50;37.60;;;;;;702837;28;818;-85
2021/12/01 01:51:00;;;;;;;;;;;20.50;37.70;;;;;;702781;28;754;-83
2021/12/01 01:51:23;;;;;;;;;;;20.50;37.70;;;;;;702753;28;889;-80
2021/12/01 01:51:44;;;;;;;;;;;20.50;37.80;;;;;;702313;28;1443;-82
2021/12/01 01:52:05;;;;;;;;;;;20.50;37.80;;;;;;699693;28;960;-82
2021/12/01 01:52:26;;;;;;;;;;;20.50;37.70;;;;;;699572;28;1216;-86
2021/12/01 01:52:46;;;;;;;;;;;20.50;37.70;;;;;;699679;28;819;-83
2021/12/01 01:53:19;;;;;;;;;;;20.50;37.80;;;;;;699883;28;498;-82
2021/12/01 01:53:40;;;;;;;;;;;20.50;37.70;;;;;;699682;28;814;-83
2021/12/01 01:54:01;;;;;;;;;;;20.50;37.70;;;;;;701824;28;877;-82
2021/12/01 01:54:21;;;;;;;;;;;20.50;37.80;;;;;;702736;28;873;-82
2021/12/01 01:54:43;;;;;;;;;;;20.50;37.80;;;;;;702472;28;1395;-81
2021/12/01 01:55:04;;;;;;;;;;;20.50;37.80;;;;;;702557;28;886;-82
2021/12/01 01:55:24;;;;;;;;;;;20.50;37.80;;;;;;702595;28;865;-81
2021/12/01 01:55:46;;;;;;;;;;;20.50;37.90;;;;;;702524;28;969;-83
2021/12/01 01:56:06;;;;;;;;;;;20.50;37.80;;;;;;699801;28;1093;-82
2021/12/01 01:56:28;;;;;;;;;;;20.50;37.80;;;;;;700247;28;831;-81
2021/12/01 01:56:48;;;;;;;;;;;20.40;37.80;;;;;;702613;28;861;-82
2021/12/01 01:57:09;;;;;;;;;;;20.50;37.90;;;;;;701530;28;1401;-80
2021/12/01 01:57:29;;;;;;;;;;;20.50;37.90;;;;;;702663;28;949;-83
2021/12/01 01:57:50;;;;;;;;;;;20.50;37.80;;;;;;702517;28;821;-83
2021/12/01 01:58:11;;;;;;;;;;;20.50;37.90;;;;;;702558;28;920;-84
2021/12/01 01:58:33;;;;;;;;;;;20.50;37.80;;;;;;699691;28;921;-83
2021/12/01 01:58:54;;;;;;;;;;;20.50;37.80;;;;;;697420;28;1465;-83
2021/12/01 01:59:15;;;;;;;;;;;20.50;38.00;;;;;;699714;28;1043;-84
2021/12/01 01:59:35;;;;;;;;;;;20.50;37.80;;;;;;699875;28;951;-82
2021/12/01 01:59:56;;;;;;;;;;;20.50;37.90;;;;;;696872;28;1242;-82
2021/12/01 02:00:16;;;;;;;;;;;20.40;37.80;;;;;;697804;28;797;-82
2021/12/01 02:00:52;;;;;;;;;;;20.40;37.90;;;;;;700531;28;881;-82
2021/12/01 02:01:26;;;;;;;;;;;20.50;37.80;;;;;;704647;28;1522;-82
2021/12/01 02:01:54;;;;;;;;;;;20.50;37.90;;;;;;705478;28;833;-82
2021/12/01 02:02:14;;;;;;;;;;;20.50;37.80;;;;;;705574;28;907;-82
2021/12/01 02:02:35;;;;;;;;;;;20.50;37.90;;;;;;705857;28;876;-83
2021/12/01 02:02:58;;;;;;;;;;;20.50;38.00;;;;;;705414;28;1349;-80
2021/12/01 02:03:21;;;;;;;;;;;20.50;37.90;;;;;;705372;28;888;-83
2021/12/01 02:03:45;;;;;;;;;;;20.40;37.90;;;;;;705487;28;766;-83
2021/12/01 02:04:07;;;;;;;;;;;20.40;39.00;;;;;;705423;28;817;-80
2021/12/01 02:04:32;;;;;;;;;;;20.40;37.90;;;;;;705318;28;981;-81
2021/12/01 02:04:56;;;;;;;;;;;20.50;38.00;;;;;;705258;28;1147;-81
2021/12/01 02:05:16;;;;;;;;;;;20.40;37.90;;;;;;705540;28;868;-84
2021/12/01 02:05:38;;;;;;;;;;;20.50;37.90;;;;;;705644;28;769;-81
2021/12/01 02:05:58;;;;;;;;;;;20.40;37.90;;;;;;705575;28;896;-80
2021/12/01 02:06:25;;;;;;;;;;;20.40;37.90;;;;;;705355;28;992;-80
2021/12/01 02:06:47;;;;;;;;;;;20.40;37.90;;;;;;705451;28;1065;-82
2021/12/01 02:07:09;;;;;;;;;;;20.40;37.90;;;;;;705340;28;1191;-84
2021/12/01 02:07:29;;;;;;;;;;;20.50;38.00;;;;;;704744;28;1130;-82
2021/12/01 02:07:52;;;;;;;;;;;20.50;38.00;;;;;;705169;28;1462;-80
2021/12/01 02:08:17;;;;;;;;;;;20.40;37.90;;;;;;705236;28;905;-81
2021/12/01 02:08:40;;;;;;;;;;;20.40;37.90;;;;;;705342;28;885;-82
2021/12/01 02:09:02;;;;;;;;;;;20.40;37.90;;;;;;705391;28;1972;-81
2021/12/01 02:09:23;;;;;;;;;;;20.50;38.00;;;;;;705649;28;813;-81
2021/12/01 02:09:43;;;;;;;;;;;20.40;38.00;;;;;;705898;28;941;-80
2021/12/01 02:10:04;;;;;;;;;;;20.40;38.00;;;;;;706040;28;1437;-84
2021/12/01 02:10:25;;;;;;;;;;;20.40;38.00;;;;;;703243;28;1260;-82
2021/12/01 02:10:49;;;;;;;;;;;20.40;38.00;;;;;;703076;28;861;-83
2021/12/01 02:11:11;;;;;;;;;;;20.40;38.00;;;;;;702828;28;905;-82
2021/12/01 02:11:33;;;;;;;;;;;20.40;38.00;;;;;;703014;28;833;-82
2021/12/01 02:11:58;;;;;;;;;;;20.40;38.00;;;;;;703964;28;821;-81
2021/12/01 02:12:19;;;;;;;;;;;20.40;38.00;;;;;;705760;28;1494;-82
2021/12/01 02:12:40;;;;;;;;;;;20.40;38.00;;;;;;705514;28;806;-81
2021/12/01 02:13:00;;;;;;;;;;;20.40;38.00;;;;;;705842;28;900;-79
2021/12/01 02:13:21;;;;;;;;;;;20.40;38.00;;;;;;705830;28;948;-79
2021/12/01 02:13:42;;;;;;;;;;;20.40;38.10;;;;;;705684;28;794;-79
2021/12/01 02:14:03;;;;;;;;;;;20.40;38.10;;;;;;705987;28;881;-81
2021/12/01 02:14:23;;;;;;;;;;;20.40;38.10;;;;;;705794;28;873;-80
2021/12/01 02:14:44;;;;;;;;;;;20.40;38.10;;;;;;706009;27;805;-82
2021/12/01 02:15:05;;;;;;;;;;;20.40;38.10;;;;;;705973;28;876;-81
2021/12/01 02:15:26;;;;;;;;;;;20.40;38.10;;;;;;705966;28;929;-80
2021/12/01 02:15:47;;;;;;;;;;;20.40;38.10;;;;;;705828;28;948;-81
2021/12/01 02:16:09;;;;;;;;;;;20.40;38.20;;;;;;705588;28;964;-81
2021/12/01 02:16:29;;;;;;;;;;;20.40;38.10;;;;;;706056;28;841;-82
2021/12/01 02:16:50;;;;;;;;;;;20.40;38.10;;;;;;705995;28;1102;-84
2021/12/01 02:17:10;;;;;;;;;;;20.40;38.10;;;;;;706365;28;794;-82
2021/12/01 02:17:31;;;;;;;;;;;20.40;38.10;;;;;;705878;28;1007;-82
2021/12/01 02:17:52;;;;;;;;;;;20.40;38.10;;;;;;705526;28;876;-84